首页
METAR-TAF:

METAR-TAF

机场 :

馬斯卡廷, 艾奥瓦州, 美国

纬度: 41-22N, 经度: 091-09W, 海拔: 167米

当前天气观测

该预报发布于5分钟前的08:55 UTC
风速11节,风向西转西北
温度 -11°C
湿度 72%
气压 1020 hPa
能見度: 16.1公里
天空无云

METAR: KMUT 100855Z AUTO 29011KT 10SM CLR M11/M15 A3013 RMK AO2

时间: 03:00 (09:00 UTC)


TAF: 丢失

超过4000个机场的气象观测和天气预报(METAR&TAF报告)。

可查询的气象台以黄色和红色小点在地图上表示。

将鼠标移到小点上方,可查看气象台名称。

然后点击查看天气观测和预报。

如需切换地图:点击带黑十字的绿色按钮放大地图;点击带横线的绿色按钮缩小地图;或者点击绿色箭头查看邻近地区的地图。


METAR-TAF: